createdAt,value
2023-02-04T00:00:15.518Z,0.00
2023-02-04T00:01:15.548Z,0.00
2023-02-04T00:02:15.508Z,0.00
2023-02-04T00:03:15.521Z,0.00
2023-02-04T00:04:15.469Z,0.00
2023-02-04T00:05:15.451Z,0.00
2023-02-04T00:06:15.459Z,0.00
2023-02-04T00:07:15.430Z,0.00
2023-02-04T00:08:15.437Z,0.00
2023-02-04T00:09:15.406Z,0.00
2023-02-04T00:10:15.426Z,0.00
2023-02-04T00:11:15.377Z,0.00
2023-02-04T00:12:15.383Z,0.00
2023-02-04T00:13:15.382Z,0.00
2023-02-04T00:14:15.348Z,0.00
2023-02-04T00:15:15.346Z,0.00
2023-02-04T00:16:15.354Z,0.00
2023-02-04T00:17:15.388Z,0.00
2023-02-04T00:18:15.338Z,0.00
2023-02-04T00:19:15.295Z,0.00
2023-02-04T00:20:15.282Z,0.00
2023-02-04T00:21:15.271Z,0.00
2023-02-04T00:22:15.255Z,0.00
2023-02-04T00:23:15.275Z,0.00
2023-02-04T00:24:15.231Z,0.00
2023-02-04T00:25:15.222Z,0.00
2023-02-04T00:26:15.237Z,0.00
2023-02-04T00:27:15.225Z,0.00
2023-02-04T00:28:15.263Z,0.00
2023-02-04T00:29:15.200Z,0.00
2023-02-04T00:30:15.177Z,0.00
2023-02-04T00:31:15.256Z,0.00
2023-02-04T00:32:15.384Z,0.00
2023-02-04T00:33:15.151Z,0.00
2023-02-04T00:34:15.149Z,0.00
2023-02-04T00:35:15.126Z,0.00
2023-02-04T00:36:15.102Z,0.00
2023-02-04T00:37:15.096Z,0.00
2023-02-04T00:38:15.111Z,0.00
2023-02-04T00:39:15.856Z,0.00
2023-02-04T00:40:15.055Z,0.00
2023-02-04T00:41:15.057Z,0.00
2023-02-04T00:42:15.038Z,0.00
2023-02-04T00:43:15.027Z,0.00
2023-02-04T00:44:15.042Z,0.00
2023-02-04T00:45:15.008Z,0.00
2023-02-04T00:46:15.050Z,0.00
2023-02-04T00:47:15.853Z,0.00
2023-02-04T00:48:14.988Z,0.00
2023-02-04T00:49:14.989Z,0.00
2023-02-04T00:50:14.948Z,0.00
2023-02-04T00:51:14.936Z,0.00
2023-02-04T00:52:14.925Z,0.00
2023-02-04T00:53:14.916Z,0.00
2023-02-04T00:54:14.928Z,0.00
2023-02-04T00:55:14.913Z,0.00
2023-02-04T00:56:14.878Z,0.00
2023-02-04T00:57:14.870Z,0.00
2023-02-04T00:58:14.883Z,0.00
2023-02-04T00:59:14.843Z,0.00
2023-02-04T01:00:14.842Z,0.00
2023-02-04T01:01:14.879Z,0.00
2023-02-04T01:02:15.762Z,0.00
2023-02-04T01:03:14.877Z,0.00
2023-02-04T01:04:14.795Z,0.00
2023-02-04T01:05:14.808Z,0.00
2023-02-04T01:06:14.770Z,0.00
2023-02-04T01:07:14.822Z,0.00
2023-02-04T01:08:14.796Z,0.00
2023-02-04T01:09:14.788Z,0.00
2023-02-04T01:10:14.772Z,0.00
2023-02-04T01:11:14.770Z,0.00
2023-02-04T01:12:14.714Z,0.00
2023-02-04T01:13:14.696Z,0.00
2023-02-04T01:14:14.708Z,0.00
2023-02-04T01:15:14.675Z,0.00
2023-02-04T01:16:14.741Z,0.00
2023-02-04T01:17:14.652Z,0.00
2023-02-04T01:18:14.660Z,0.00
2023-02-04T01:19:14.637Z,0.00
2023-02-04T01:20:14.616Z,0.00
2023-02-04T01:21:14.631Z,0.00
2023-02-04T01:22:14.597Z,0.00
2023-02-04T01:23:14.618Z,0.00
2023-02-04T01:24:14.893Z,0.00
2023-02-04T01:25:14.610Z,0.00
2023-02-04T01:26:14.571Z,0.00
2023-02-04T01:27:14.540Z,0.00
2023-02-04T01:28:14.578Z,0.00
2023-02-04T01:29:14.566Z,0.00
2023-02-04T01:30:14.504Z,0.00
2023-02-04T01:31:14.578Z,0.00
2023-02-04T01:32:14.487Z,0.00
2023-02-04T01:33:14.477Z,0.00
2023-02-04T01:34:14.485Z,0.00
2023-02-04T01:35:14.490Z,0.00
2023-02-04T01:36:14.442Z,0.00
2023-02-04T01:37:14.451Z,0.00
2023-02-04T01:38:14.425Z,0.00
2023-02-04T01:39:14.517Z,0.00
2023-02-04T01:40:14.401Z,0.00
2023-02-04T01:41:14.522Z,0.00
2023-02-04T01:42:15.360Z,0.00
2023-02-04T01:43:15.362Z,0.00
2023-02-04T01:44:14.592Z,0.00
2023-02-04T01:45:14.398Z,0.00
2023-02-04T01:46:14.554Z,0.00
2023-02-04T01:47:14.319Z,0.00
2023-02-04T01:48:14.359Z,0.00
2023-02-04T01:49:14.370Z,0.00
2023-02-04T01:50:14.292Z,0.00
2023-02-04T01:51:14.480Z,0.00
2023-02-04T01:52:14.266Z,0.00
2023-02-04T01:53:14.305Z,0.00
2023-02-04T01:54:14.248Z,0.00
2023-02-04T01:55:14.395Z,0.00
2023-02-04T01:56:14.224Z,0.00
2023-02-04T01:57:14.286Z,0.00
2023-02-04T01:58:14.199Z,0.00
2023-02-04T01:59:14.287Z,0.00
2023-02-04T02:00:14.409Z,0.00
2023-02-04T02:01:14.904Z,0.00
2023-02-04T02:02:14.906Z,0.00
2023-02-04T02:03:14.192Z,0.00
2023-02-04T02:04:14.283Z,0.00
2023-02-04T02:05:14.491Z,0.00
2023-02-04T02:06:14.137Z,0.00
2023-02-04T02:07:14.130Z,0.00
2023-02-04T02:08:14.088Z,0.00
2023-02-04T02:09:14.096Z,0.00
2023-02-04T02:10:14.094Z,0.00
2023-02-04T02:11:14.238Z,0.00
2023-02-04T02:12:14.867Z,0.00
2023-02-04T02:13:14.286Z,0.00
2023-02-04T02:14:14.036Z,0.00
2023-02-04T02:15:14.867Z,0.00
2023-02-04T02:16:14.291Z,0.00
2023-02-04T02:17:14.010Z,0.00
2023-02-04T02:18:14.287Z,0.00
2023-02-04T02:19:14.859Z,0.00
2023-02-04T02:20:14.873Z,0.00
2023-02-04T02:21:13.972Z,0.00
2023-02-04T02:22:13.953Z,0.00
2023-02-04T02:23:14.097Z,0.00
2023-02-04T02:24:13.930Z,0.00
2023-02-04T02:25:13.917Z,0.00
2023-02-04T02:26:13.922Z,0.00
2023-02-04T02:27:13.880Z,0.00
2023-02-04T02:28:14.191Z,0.00
2023-02-04T02:29:13.995Z,0.00
2023-02-04T02:30:14.087Z,0.00
2023-02-04T02:31:14.179Z,0.00
2023-02-04T02:32:13.908Z,0.00
2023-02-04T02:33:13.812Z,0.00
2023-02-04T02:34:13.809Z,0.00
2023-02-04T02:35:13.795Z,0.00
2023-02-04T02:36:14.061Z,0.00
2023-02-04T02:37:13.766Z,0.00
2023-02-04T02:38:13.872Z,0.00
2023-02-04T02:39:13.751Z,0.00
2023-02-04T02:40:13.743Z,0.00
2023-02-04T02:41:13.784Z,0.00
2023-02-04T02:42:13.715Z,0.00
2023-02-04T02:43:13.724Z,0.00
2023-02-04T02:44:13.686Z,0.00
2023-02-04T02:45:13.689Z,0.00
2023-02-04T02:46:13.695Z,0.00
2023-02-04T02:47:13.661Z,0.00
2023-02-04T02:48:13.674Z,0.00
2023-02-04T02:49:13.629Z,0.00
2023-02-04T02:50:13.620Z,0.00
2023-02-04T02:51:13.669Z,0.00
2023-02-04T02:52:13.601Z,0.00
2023-02-04T02:53:13.585Z,0.00
2023-02-04T02:54:13.594Z,0.00
2023-02-04T02:55:13.574Z,0.00
2023-02-04T02:56:13.627Z,0.00
2023-02-04T02:57:13.558Z,0.00
2023-02-04T02:58:13.554Z,0.00
2023-02-04T02:59:13.518Z,0.00
2023-02-04T03:00:13.511Z,0.00
2023-02-04T03:01:13.534Z,0.00
2023-02-04T03:02:13.653Z,0.00
2023-02-04T03:03:13.495Z,0.00
2023-02-04T03:04:13.473Z,0.00
2023-02-04T03:05:13.451Z,0.00
2023-02-04T03:06:13.567Z,0.00
2023-02-04T03:07:13.431Z,0.00
2023-02-04T03:08:13.450Z,0.00
2023-02-04T03:09:13.407Z,0.00
2023-02-04T03:10:13.400Z,0.00
2023-02-04T03:11:13.398Z,0.00
2023-02-04T03:12:13.375Z,0.00
2023-02-04T03:13:13.416Z,0.00
2023-02-04T03:14:13.351Z,0.00
2023-02-04T03:15:13.341Z,0.00
2023-02-04T03:16:13.417Z,0.00
2023-02-04T03:17:13.315Z,0.00
2023-02-04T03:18:13.326Z,0.00
2023-02-04T03:19:13.299Z,0.00
2023-02-04T03:20:13.281Z,0.00
2023-02-04T03:21:13.276Z,0.00
2023-02-04T03:22:13.266Z,0.00
2023-02-04T03:23:13.278Z,0.00
2023-02-04T03:24:13.242Z,0.00
2023-02-04T03:25:13.232Z,0.00
2023-02-04T03:26:13.219Z,0.00
2023-02-04T03:27:13.243Z,0.00
2023-02-04T03:28:13.277Z,0.00
2023-02-04T03:29:13.288Z,0.00
2023-02-04T03:30:13.177Z,0.00
2023-02-04T03:31:13.256Z,0.00
2023-02-04T03:32:13.160Z,0.00
2023-02-04T03:33:13.165Z,0.00
2023-02-04T03:34:13.163Z,0.00
2023-02-04T03:35:13.128Z,0.00
2023-02-04T03:36:13.115Z,0.00
2023-02-04T03:37:13.128Z,0.00
2023-02-04T03:38:13.097Z,0.00
2023-02-04T03:39:13.179Z,0.00
2023-02-04T03:40:13.088Z,0.00
2023-02-04T03:41:13.073Z,0.00
2023-02-04T03:42:13.079Z,0.00
2023-02-04T03:43:13.043Z,0.00
2023-02-04T03:44:13.058Z,0.00
2023-02-04T03:45:13.035Z,0.00
2023-02-04T03:46:13.065Z,0.00
2023-02-04T03:47:13.018Z,0.00
2023-02-04T03:48:12.988Z,0.00
2023-02-04T03:49:13.010Z,0.00
2023-02-04T03:50:12.963Z,0.00
2023-02-04T03:51:12.951Z,0.00
2023-02-04T03:52:12.974Z,0.00
2023-02-04T03:53:12.936Z,0.00
2023-02-04T03:54:12.933Z,0.00
2023-02-04T03:55:12.919Z,0.00
2023-02-04T03:56:12.914Z,0.00
2023-02-04T03:57:12.906Z,0.00
2023-02-04T03:58:12.878Z,0.00
2023-02-04T03:59:12.896Z,0.00
2023-02-04T04:00:12.898Z,0.00
2023-02-04T04:01:12.977Z,0.00
2023-02-04T04:02:12.868Z,0.00
2023-02-04T04:03:12.831Z,0.00
2023-02-04T04:04:12.832Z,0.00
2023-02-04T04:05:12.818Z,0.00
2023-02-04T04:06:12.780Z,0.00
2023-02-04T04:07:12.965Z,0.00
2023-02-04T04:08:12.775Z,0.00
2023-02-04T04:09:12.761Z,0.00
2023-02-04T04:10:12.750Z,0.00
2023-02-04T04:11:12.731Z,0.00
2023-02-04T04:12:12.746Z,0.00
2023-02-04T04:13:12.733Z,0.00
2023-02-04T04:14:12.709Z,0.00
2023-02-04T04:15:12.696Z,0.00
2023-02-04T04:16:12.753Z,0.00
2023-02-04T04:17:12.713Z,0.00
2023-02-04T04:18:12.683Z,0.00
2023-02-04T04:19:12.647Z,0.00
2023-02-04T04:20:12.647Z,0.00
2023-02-04T04:21:12.624Z,0.00
2023-02-04T04:22:12.613Z,0.00
2023-02-04T04:23:12.614Z,0.00
2023-02-04T04:24:12.640Z,0.00
2023-02-04T04:25:12.580Z,0.00
2023-02-04T04:26:12.577Z,0.00
2023-02-04T04:27:12.582Z,0.00
2023-02-04T04:28:12.601Z,0.00
2023-02-04T04:29:12.553Z,0.00
2023-02-04T04:30:12.528Z,0.00
2023-02-04T04:31:12.601Z,0.00
2023-02-04T04:32:12.493Z,0.00
2023-02-04T04:33:12.529Z,0.00
2023-02-04T04:34:12.505Z,0.00
2023-02-04T04:35:12.491Z,0.00
2023-02-04T04:36:12.461Z,0.00
2023-02-04T04:37:12.437Z,0.00
2023-02-04T04:38:12.458Z,0.00
2023-02-04T04:39:12.454Z,0.00
2023-02-04T04:40:12.405Z,0.00
2023-02-04T04:41:12.411Z,0.00
2023-02-04T04:42:12.397Z,0.00
2023-02-04T04:43:12.411Z,0.00
2023-02-04T04:44:12.373Z,0.00
2023-02-04T04:45:12.370Z,0.00
2023-02-04T04:46:12.354Z,0.00
2023-02-04T04:47:12.359Z,0.00
2023-02-04T04:48:12.324Z,0.00
2023-02-04T04:49:12.896Z,0.00
2023-02-04T04:50:12.318Z,0.00
2023-02-04T04:51:12.309Z,0.00
2023-02-04T04:52:12.293Z,0.00
2023-02-04T04:53:12.266Z,0.00
2023-02-04T04:54:12.278Z,0.00
2023-02-04T04:55:12.260Z,0.00
2023-02-04T04:56:12.226Z,0.00
2023-02-04T04:57:12.233Z,0.00
2023-02-04T04:58:12.215Z,0.00
2023-02-04T04:59:12.298Z,0.00
2023-02-04T05:00:12.278Z,0.00
2023-02-04T05:01:12.239Z,0.00
2023-02-04T05:02:12.161Z,0.00
2023-02-04T05:03:12.170Z,0.00
2023-02-04T05:04:12.192Z,0.00
2023-02-04T05:05:12.179Z,0.00
2023-02-04T05:06:12.120Z,0.00
2023-02-04T05:07:12.120Z,0.00
2023-02-04T05:08:12.097Z,0.00
2023-02-04T05:09:12.134Z,0.00
2023-02-04T05:10:12.100Z,0.00
2023-02-04T05:11:12.066Z,0.00
2023-02-04T05:12:12.052Z,0.00
2023-02-04T05:13:12.069Z,0.00
2023-02-04T05:14:12.098Z,0.00
2023-02-04T05:15:12.032Z,0.00
2023-02-04T05:16:12.125Z,0.00
2023-02-04T05:17:12.014Z,0.00
2023-02-04T05:18:11.992Z,0.00
2023-02-04T05:19:12.027Z,0.00
2023-02-04T05:20:11.993Z,0.00
2023-02-04T05:21:11.983Z,0.00
2023-02-04T05:22:11.964Z,0.00
2023-02-04T05:23:11.945Z,0.00
2023-02-04T05:24:11.942Z,0.00
2023-02-04T05:25:11.972Z,0.00
2023-02-04T05:26:15.330Z,0.00
2023-02-04T05:27:12.910Z,0.00
2023-02-04T05:28:12.014Z,0.00
2023-02-04T05:29:11.895Z,0.00
2023-02-04T05:30:11.891Z,0.00
2023-02-04T05:31:12.037Z,0.00
2023-02-04T05:32:11.885Z,0.00
2023-02-04T05:33:11.850Z,0.00
2023-02-04T05:34:11.840Z,0.00
2023-02-04T05:35:11.819Z,0.00
2023-02-04T05:36:11.818Z,0.00
2023-02-04T05:37:11.831Z,0.00
2023-02-04T05:38:11.795Z,0.00
2023-02-04T05:39:11.764Z,0.00
2023-02-04T05:40:11.752Z,0.00
2023-02-04T05:41:11.743Z,0.00
2023-02-04T05:42:11.731Z,0.00
2023-02-04T05:43:11.902Z,0.00
2023-02-04T05:44:11.702Z,0.00
2023-02-04T05:45:11.700Z,0.00
2023-02-04T05:46:11.801Z,0.00
2023-02-04T05:47:11.698Z,0.00
2023-02-04T05:48:11.685Z,0.00
2023-02-04T05:49:11.671Z,0.00
2023-02-04T05:50:11.637Z,0.00
2023-02-04T05:51:11.633Z,0.00
2023-02-04T05:52:11.634Z,0.00
2023-02-04T05:53:11.626Z,0.00
2023-02-04T05:54:11.591Z,0.00
2023-02-04T05:55:11.586Z,0.00
2023-02-04T05:56:11.577Z,0.00
2023-02-04T05:57:11.592Z,0.00
2023-02-04T05:58:11.560Z,0.00
2023-02-04T05:59:11.583Z,0.00
2023-02-04T06:00:11.531Z,0.00
2023-02-04T06:01:11.522Z,0.00
2023-02-04T06:02:11.508Z,0.00
2023-02-04T06:03:11.568Z,0.00
2023-02-04T06:04:11.544Z,0.00
2023-02-04T06:05:11.474Z,0.00
2023-02-04T06:06:11.469Z,0.00
2023-02-04T06:07:11.469Z,0.00
2023-02-04T06:08:11.462Z,0.00
2023-02-04T06:09:11.468Z,0.00
2023-02-04T06:10:11.457Z,0.00
2023-02-04T06:11:11.438Z,0.00
2023-02-04T06:12:11.395Z,0.00
2023-02-04T06:13:11.388Z,0.00
2023-02-04T06:14:11.373Z,0.00
2023-02-04T06:15:11.386Z,0.00
2023-02-04T06:16:11.374Z,0.00
2023-02-04T06:17:11.340Z,0.00
2023-02-04T06:18:11.327Z,0.00
2023-02-04T06:19:11.333Z,0.00
2023-02-04T06:20:11.324Z,0.00
2023-02-04T06:21:11.316Z,0.00
2023-02-04T06:22:11.278Z,0.00
2023-02-04T06:23:11.417Z,4.00
2023-02-04T06:24:11.292Z,0.00
2023-02-04T06:25:11.286Z,4.00
2023-02-04T06:26:11.241Z,0.00
2023-02-04T06:27:11.242Z,4.00
2023-02-04T06:28:11.301Z,4.00
2023-02-04T06:29:11.241Z,0.00
2023-02-04T06:30:11.200Z,4.00
2023-02-04T06:31:11.339Z,8.00
2023-02-04T06:32:11.186Z,8.00
2023-02-04T06:33:11.182Z,4.00
2023-02-04T06:34:11.172Z,8.00
2023-02-04T06:35:11.151Z,8.00
2023-02-04T06:36:11.147Z,12.00
2023-02-04T06:37:11.153Z,16.00
2023-02-04T06:38:11.133Z,20.00
2023-02-04T06:39:11.098Z,20.00
2023-02-04T06:40:11.092Z,24.00
2023-02-04T06:41:11.101Z,28.00
2023-02-04T06:42:11.091Z,32.00
2023-02-04T06:43:11.064Z,36.00
2023-02-04T06:44:11.117Z,44.00
2023-02-04T06:45:11.076Z,48.00
2023-02-04T06:46:11.067Z,52.00
2023-02-04T06:47:11.006Z,60.00
2023-02-04T06:48:11.001Z,68.00
2023-02-04T06:49:11.013Z,76.00
2023-02-04T06:50:10.992Z,88.00
2023-02-04T06:51:10.954Z,96.00
2023-02-04T06:52:10.954Z,108.00
2023-02-04T06:53:10.972Z,120.00
2023-02-04T06:54:10.929Z,132.00
2023-02-04T06:55:10.940Z,144.00
2023-02-04T06:56:10.935Z,156.00
2023-02-04T06:57:10.913Z,172.00
2023-02-04T06:58:10.890Z,184.00
2023-02-04T06:59:10.908Z,196.00
2023-02-04T07:00:10.871Z,212.00
2023-02-04T07:01:10.901Z,228.00
2023-02-04T07:02:10.878Z,236.00
2023-02-04T07:03:10.869Z,248.00
2023-02-04T07:04:10.822Z,260.00
2023-02-04T07:05:10.822Z,276.00
2023-02-04T07:06:10.816Z,288.00
2023-02-04T07:07:10.802Z,300.00
2023-02-04T07:08:10.798Z,316.00
2023-02-04T07:09:10.794Z,328.00
2023-02-04T07:10:10.763Z,344.00
2023-02-04T07:11:10.791Z,356.00
2023-02-04T07:12:10.742Z,372.00
2023-02-04T07:13:10.745Z,388.00
2023-02-04T07:14:10.744Z,408.00
2023-02-04T07:15:10.761Z,428.00
2023-02-04T07:16:10.804Z,448.00
2023-02-04T07:17:10.701Z,468.00
2023-02-04T07:18:10.682Z,488.00
2023-02-04T07:19:10.652Z,520.00
2023-02-04T07:20:10.655Z,556.00
2023-02-04T07:21:10.664Z,588.00
2023-02-04T07:22:10.641Z,612.00
2023-02-04T07:23:10.613Z,628.00
2023-02-04T07:24:10.610Z,652.00
2023-02-04T07:25:10.614Z,668.00
2023-02-04T07:26:10.633Z,704.00
2023-02-04T07:27:10.589Z,784.00
2023-02-04T07:28:10.615Z,864.00
2023-02-04T07:29:17.438Z,924.00
2023-02-04T07:30:11.537Z,964.00
2023-02-04T07:31:10.611Z,980.00
2023-02-04T07:32:10.569Z,976.00
2023-02-04T07:33:10.509Z,960.00
2023-02-04T07:34:10.493Z,956.00
2023-02-04T07:35:10.493Z,964.00
2023-02-04T07:36:10.482Z,988.00
2023-02-04T07:37:10.494Z,1016.00
2023-02-04T07:38:10.506Z,1016.00
2023-02-04T07:39:10.441Z,1024.00
2023-02-04T07:40:10.425Z,1056.00
2023-02-04T07:41:11.351Z,1092.00
2023-02-04T07:42:10.398Z,1108.00
2023-02-04T07:43:10.388Z,1140.00
2023-02-04T07:44:10.412Z,1176.00
2023-02-04T07:45:10.411Z,1244.00
2023-02-04T07:46:10.407Z,1292.00
2023-02-04T07:47:10.346Z,1344.00
2023-02-04T07:48:10.328Z,1388.00
2023-02-04T07:49:10.316Z,1420.00
2023-02-04T07:50:10.316Z,1452.00
2023-02-04T07:51:10.323Z,1496.00
2023-02-04T07:52:10.285Z,1588.00
2023-02-04T07:53:10.277Z,1716.00
2023-02-04T07:54:10.257Z,1828.00
2023-02-04T07:55:10.269Z,1960.00
2023-02-04T07:56:10.241Z,2088.00
2023-02-04T07:57:10.246Z,2148.00
2023-02-04T07:58:10.231Z,2180.00
2023-02-04T07:59:10.242Z,2228.00
2023-02-04T08:00:10.198Z,2268.00
2023-02-04T08:01:10.197Z,2220.00
2023-02-04T08:02:10.182Z,2116.00
2023-02-04T08:03:10.225Z,1988.00
2023-02-04T08:04:10.189Z,1892.00
2023-02-04T08:05:10.140Z,1820.00
2023-02-04T08:06:10.125Z,1764.00
2023-02-04T08:07:10.115Z,1812.00
2023-02-04T08:08:10.109Z,1808.00
2023-02-04T08:09:10.108Z,1876.00
2023-02-04T08:10:10.104Z,2048.00
2023-02-04T08:11:10.074Z,2232.00
2023-02-04T08:12:10.070Z,2364.00
2023-02-04T08:13:10.053Z,2488.00
2023-02-04T08:14:10.059Z,2568.00
2023-02-04T08:15:10.025Z,2648.00
2023-02-04T08:16:11.843Z,2692.00
2023-02-04T08:17:10.030Z,2712.00
2023-02-04T08:18:09.995Z,2756.00
2023-02-04T08:19:10.029Z,2792.00
2023-02-04T08:20:09.970Z,2780.00
2023-02-04T08:21:09.982Z,2764.00
2023-02-04T08:22:09.958Z,2784.00
2023-02-04T08:23:09.968Z,2816.00
2023-02-04T08:24:09.995Z,2808.00
2023-02-04T08:25:09.919Z,2852.00
2023-02-04T08:26:09.905Z,2860.00
2023-02-04T08:27:09.892Z,2852.00
2023-02-04T08:28:09.946Z,2812.00
2023-02-04T08:29:09.869Z,2768.00
2023-02-04T08:30:09.896Z,2708.00
2023-02-04T08:31:09.940Z,2628.00
2023-02-04T08:32:09.835Z,2592.00
2023-02-04T08:33:09.868Z,2496.00
2023-02-04T08:34:09.817Z,2480.00
2023-02-04T08:35:09.802Z,2412.00
2023-02-04T08:36:09.799Z,2320.00
2023-02-04T08:37:09.809Z,2284.00
2023-02-04T08:38:09.805Z,2236.00
2023-02-04T08:39:09.766Z,2252.00
2023-02-04T08:40:09.784Z,2244.00
2023-02-04T08:41:09.736Z,2228.00
2023-02-04T08:42:09.726Z,2220.00
2023-02-04T08:43:09.706Z,2280.00
2023-02-04T08:44:09.720Z,2296.00
2023-02-04T08:45:09.733Z,2296.00
2023-02-04T08:46:09.724Z,2324.00
2023-02-04T08:47:09.684Z,2348.00
2023-02-04T08:48:09.681Z,2408.00
2023-02-04T08:49:09.687Z,2440.00
2023-02-04T08:50:09.646Z,2444.00
2023-02-04T08:51:09.677Z,2476.00
2023-02-04T08:52:09.723Z,2552.00
2023-02-04T08:53:09.623Z,2604.00
2023-02-04T08:54:09.643Z,2600.00
2023-02-04T08:55:09.616Z,2596.00
2023-02-04T08:56:09.597Z,2636.00
2023-02-04T08:57:09.583Z,2668.00
2023-02-04T08:58:09.596Z,2660.00
2023-02-04T08:59:10.353Z,2672.00
2023-02-04T09:00:09.548Z,2664.00
2023-02-04T09:01:09.596Z,2664.00
2023-02-04T09:02:09.615Z,2664.00
2023-02-04T09:03:09.571Z,2660.00
2023-02-04T09:04:09.519Z,2680.00
2023-02-04T09:05:09.523Z,2684.00
2023-02-04T09:06:09.624Z,2664.00
2023-02-04T09:07:09.470Z,2660.00
2023-02-04T09:08:09.465Z,2648.00
2023-02-04T09:09:09.449Z,2696.00
2023-02-04T09:10:09.443Z,2744.00
2023-02-04T09:11:09.454Z,2828.00
2023-02-04T09:12:09.454Z,2904.00
2023-02-04T09:13:09.471Z,2952.00
2023-02-04T09:14:09.423Z,3008.00
2023-02-04T09:15:09.391Z,3024.00
2023-02-04T09:16:09.444Z,3040.00
2023-02-04T09:17:09.376Z,3108.00
2023-02-04T09:18:09.359Z,3192.00
2023-02-04T09:19:09.373Z,3204.00
2023-02-04T09:20:09.355Z,3212.00
2023-02-04T09:21:09.469Z,3256.00
2023-02-04T09:22:09.339Z,3276.00
2023-02-04T09:23:09.337Z,2776.00
2023-02-04T09:24:09.308Z,2740.00
2023-02-04T09:25:09.280Z,3204.00
2023-02-04T09:26:09.288Z,3204.00
2023-02-04T09:27:09.262Z,3364.00
2023-02-04T09:28:09.348Z,3532.00
2023-02-04T09:29:09.241Z,3588.00
2023-02-04T09:30:09.251Z,3628.00
2023-02-04T09:31:09.269Z,3684.00
2023-02-04T09:32:09.264Z,3764.00
2023-02-04T09:33:09.244Z,3876.00
2023-02-04T09:34:09.189Z,3996.00
2023-02-04T09:35:09.179Z,4080.00
2023-02-04T09:36:09.976Z,4008.00
2023-02-04T09:37:09.175Z,4036.00
2023-02-04T09:38:09.164Z,4148.00
2023-02-04T09:39:09.239Z,4224.00
2023-02-04T09:40:09.128Z,4288.00
2023-02-04T09:41:09.117Z,4316.00
2023-02-04T09:42:09.114Z,4272.00
2023-02-04T09:43:09.124Z,4212.00
2023-02-04T09:44:09.112Z,4248.00
2023-02-04T09:45:09.081Z,4232.00
2023-02-04T09:46:09.070Z,4184.00
2023-02-04T09:47:09.060Z,4132.00
2023-02-04T09:48:10.324Z,4088.00
2023-02-04T09:49:09.024Z,4044.00
2023-02-04T09:50:09.051Z,4020.00
2023-02-04T09:51:09.007Z,4052.00
2023-02-04T09:52:08.998Z,4080.00
2023-02-04T09:53:08.994Z,4116.00
2023-02-04T09:54:09.871Z,4140.00
2023-02-04T09:55:08.951Z,4216.00
2023-02-04T09:56:08.939Z,4176.00
2023-02-04T09:57:08.926Z,4216.00
2023-02-04T09:58:08.917Z,4252.00
2023-02-04T09:59:08.922Z,4284.00
2023-02-04T10:00:09.907Z,4276.00
2023-02-04T10:01:08.906Z,4272.00
2023-02-04T10:02:08.869Z,4264.00
2023-02-04T10:03:08.848Z,4280.00
2023-02-04T10:04:08.861Z,4308.00
2023-02-04T10:05:08.825Z,4360.00
2023-02-04T10:06:08.825Z,4436.00
2023-02-04T10:07:08.804Z,4516.00
2023-02-04T10:08:08.784Z,4644.00
2023-02-04T10:09:08.810Z,4792.00
2023-02-04T10:10:08.774Z,4960.00
2023-02-04T10:11:08.781Z,4788.00
2023-02-04T10:12:08.741Z,4192.00
2023-02-04T10:13:08.751Z,4528.00
2023-02-04T10:14:08.760Z,3960.00
2023-02-04T10:15:08.715Z,4448.00
2023-02-04T10:16:08.850Z,3416.00
2023-02-04T10:17:08.739Z,3120.00
2023-02-04T10:18:08.681Z,2876.00
2023-02-04T10:19:08.690Z,2588.00
2023-02-04T10:20:08.679Z,2432.00
2023-02-04T10:21:08.650Z,2352.00
2023-02-04T10:22:08.632Z,2224.00
2023-02-04T10:23:08.682Z,2144.00
2023-02-04T10:24:08.610Z,2088.00
2023-02-04T10:25:08.613Z,2144.00
2023-02-04T10:26:08.584Z,2312.00
2023-02-04T10:27:08.578Z,2664.00
2023-02-04T10:28:08.659Z,2936.00
2023-02-04T10:29:09.872Z,2980.00
2023-02-04T10:30:08.560Z,2908.00
2023-02-04T10:31:08.674Z,2924.00
2023-02-04T10:32:08.527Z,3336.00
2023-02-04T10:33:08.534Z,4180.00
2023-02-04T10:34:08.499Z,5080.00
2023-02-04T10:35:08.491Z,4336.00
2023-02-04T10:36:08.484Z,4264.00
2023-02-04T10:37:08.486Z,4292.00
2023-02-04T10:38:08.457Z,4272.00
2023-02-04T10:39:08.449Z,4140.00
2023-02-04T10:40:08.473Z,4020.00
2023-02-04T10:41:08.443Z,3948.00
2023-02-04T10:42:08.429Z,3896.00
2023-02-04T10:43:08.405Z,3900.00
2023-02-04T10:44:08.397Z,3844.00
2023-02-04T10:45:08.409Z,3836.00
2023-02-04T10:46:08.451Z,3944.00
2023-02-04T10:47:08.356Z,4080.00
2023-02-04T10:48:08.363Z,4164.00
2023-02-04T10:49:08.340Z,4212.00
2023-02-04T10:50:08.354Z,4284.00
2023-02-04T10:51:08.310Z,4440.00
2023-02-04T10:52:08.334Z,4568.00
2023-02-04T10:53:08.324Z,4616.00
2023-02-04T10:54:08.306Z,4512.00
2023-02-04T10:55:08.323Z,4332.00
2023-02-04T10:56:08.314Z,4168.00
2023-02-04T10:57:08.296Z,4072.00
2023-02-04T10:58:08.239Z,3892.00
2023-02-04T10:59:08.233Z,3732.00
2023-02-04T11:00:08.221Z,3708.00
2023-02-04T11:01:08.257Z,3520.00
2023-02-04T11:02:08.193Z,3680.00
2023-02-04T11:03:08.288Z,3496.00
2023-02-04T11:04:08.170Z,3304.00
2023-02-04T11:05:08.191Z,3316.00
2023-02-04T11:06:08.149Z,3516.00
2023-02-04T11:07:08.148Z,3624.00
2023-02-04T11:08:08.160Z,3608.00
2023-02-04T11:09:08.131Z,3380.00
2023-02-04T11:10:08.106Z,3148.00
2023-02-04T11:11:08.101Z,2844.00
2023-02-04T11:12:08.166Z,2444.00
2023-02-04T11:13:08.125Z,2308.00
2023-02-04T11:14:08.061Z,2236.00
2023-02-04T11:15:08.058Z,2364.00
2023-02-04T11:16:08.191Z,2164.00
2023-02-04T11:17:08.027Z,2152.00
2023-02-04T11:18:08.026Z,2204.00
2023-02-04T11:19:08.007Z,2192.00
2023-02-04T11:20:08.017Z,2160.00
2023-02-04T11:21:07.994Z,2224.00
2023-02-04T11:22:07.990Z,2456.00
2023-02-04T11:23:07.975Z,2540.00
2023-02-04T11:24:07.959Z,2580.00
2023-02-04T11:25:07.946Z,2572.00
2023-02-04T11:26:07.989Z,2640.00
2023-02-04T11:27:08.860Z,2704.00
2023-02-04T11:28:08.005Z,2844.00
2023-02-04T11:29:07.921Z,3400.00
2023-02-04T11:30:07.920Z,3832.00
2023-02-04T11:31:08.000Z,4308.00
2023-02-04T11:32:07.882Z,4456.00
2023-02-04T11:33:07.931Z,4196.00
2023-02-04T11:34:07.839Z,3816.00
2023-02-04T11:35:07.840Z,3140.00
2023-02-04T11:36:07.846Z,3288.00
2023-02-04T11:37:07.837Z,3004.00
2023-02-04T11:38:07.791Z,2940.00
2023-02-04T11:39:07.780Z,2888.00
2023-02-04T11:40:07.769Z,2940.00
2023-02-04T11:41:07.765Z,2716.00
2023-02-04T11:42:07.775Z,2964.00
2023-02-04T11:43:07.736Z,3036.00
2023-02-04T11:44:07.750Z,3484.00
2023-02-04T11:45:07.742Z,3940.00
2023-02-04T11:46:07.746Z,4428.00
2023-02-04T11:47:07.712Z,4052.00
2023-02-04T11:48:07.675Z,3588.00
2023-02-04T11:49:07.724Z,3412.00
2023-02-04T11:50:07.664Z,3484.00
2023-02-04T11:51:07.652Z,3784.00
2023-02-04T11:52:07.640Z,3752.00
2023-02-04T11:53:07.642Z,3868.00
2023-02-04T11:54:07.631Z,3640.00
2023-02-04T11:55:07.600Z,3268.00
2023-02-04T11:56:07.584Z,3132.00
2023-02-04T11:57:07.585Z,3028.00
2023-02-04T11:58:07.591Z,2932.00
2023-02-04T11:59:07.587Z,2916.00
2023-02-04T12:00:07.572Z,2972.00
2023-02-04T12:01:07.574Z,3036.00
2023-02-04T12:02:07.537Z,3096.00
2023-02-04T12:03:07.518Z,3200.00
2023-02-04T12:04:07.610Z,3288.00
2023-02-04T12:05:07.490Z,3364.00
2023-02-04T12:06:07.479Z,3368.00
2023-02-04T12:07:07.474Z,3328.00
2023-02-04T12:08:07.486Z,3388.00
2023-02-04T12:09:07.463Z,3440.00
2023-02-04T12:10:07.456Z,3300.00
2023-02-04T12:11:07.454Z,3240.00
2023-02-04T12:12:08.357Z,3124.00
2023-02-04T12:13:07.441Z,3068.00
2023-02-04T12:14:07.426Z,3124.00
2023-02-04T12:15:07.391Z,3204.00
2023-02-04T12:16:07.476Z,3300.00
2023-02-04T12:17:07.377Z,3436.00
2023-02-04T12:18:07.372Z,3556.00
2023-02-04T12:19:07.338Z,3764.00
2023-02-04T12:20:07.348Z,3612.00
2023-02-04T12:21:07.324Z,3632.00
2023-02-04T12:22:07.303Z,3716.00
2023-02-04T12:23:07.301Z,3796.00
2023-02-04T12:24:07.871Z,3820.00
2023-02-04T12:25:07.300Z,3880.00
2023-02-04T12:26:08.591Z,3756.00
2023-02-04T12:27:07.273Z,3600.00
2023-02-04T12:28:07.235Z,3364.00
2023-02-04T12:29:07.224Z,3120.00
2023-02-04T12:30:07.226Z,2960.00
2023-02-04T12:31:07.342Z,2900.00
2023-02-04T12:32:07.270Z,2840.00
2023-02-04T12:33:07.214Z,2740.00
2023-02-04T12:34:07.168Z,3008.00
2023-02-04T12:35:07.186Z,2916.00
2023-02-04T12:36:07.148Z,3196.00
2023-02-04T12:37:07.128Z,3400.00
2023-02-04T12:38:07.133Z,3832.00
2023-02-04T12:39:07.138Z,4084.00
2023-02-04T12:40:07.099Z,4236.00
2023-02-04T12:41:07.098Z,4516.00
2023-02-04T12:42:07.101Z,4844.00
2023-02-04T12:43:07.070Z,5132.00
2023-02-04T12:44:07.077Z,5036.00